createdAt,value
2022-09-11T00:00:57.650Z,1008.14
2022-09-11T00:01:57.694Z,1008.12
2022-09-11T00:02:57.682Z,1008.16
2022-09-11T00:03:57.660Z,1008.15
2022-09-11T00:04:57.659Z,1008.19
2022-09-11T00:05:57.665Z,1008.18
2022-09-11T00:06:57.656Z,1008.20
2022-09-11T00:07:57.667Z,1008.22
2022-09-11T00:08:57.657Z,1008.16
2022-09-11T00:09:57.668Z,1008.19
2022-09-11T00:10:57.673Z,1008.22
2022-09-11T00:11:57.670Z,1008.22
2022-09-11T00:12:57.695Z,1008.18
2022-09-11T00:13:57.688Z,1008.20
2022-09-11T00:14:57.675Z,1008.22
2022-09-11T00:15:57.718Z,1008.19
2022-09-11T00:16:57.687Z,1008.16
2022-09-11T00:17:57.680Z,1008.19
2022-09-11T00:18:57.708Z,1008.21
2022-09-11T00:19:57.696Z,1008.16
2022-09-11T00:20:57.694Z,1008.20
2022-09-11T00:21:57.709Z,1008.22
2022-09-11T00:22:57.704Z,1008.22
2022-09-11T00:23:57.705Z,1008.24
2022-09-11T00:24:57.722Z,1008.25
2022-09-11T00:25:57.709Z,1008.22
2022-09-11T00:26:57.741Z,1008.21
2022-09-11T00:27:57.720Z,1008.21
2022-09-11T00:28:57.714Z,1008.19
2022-09-11T00:29:57.751Z,1008.21
2022-09-11T00:30:57.754Z,1008.17
2022-09-11T00:31:57.716Z,1008.21
2022-09-11T00:32:57.724Z,1008.19
2022-09-11T00:33:57.727Z,1008.21
2022-09-11T00:34:57.738Z,1008.23
2022-09-11T00:35:57.744Z,1008.26
2022-09-11T00:36:57.753Z,1008.28
2022-09-11T00:37:57.732Z,1008.22
2022-09-11T00:38:57.733Z,1008.25
2022-09-11T00:39:57.763Z,1008.25
2022-09-11T00:40:57.748Z,1008.26
2022-09-11T00:41:57.743Z,1008.29
2022-09-11T00:42:57.752Z,1008.30
2022-09-11T00:43:57.758Z,1008.25
2022-09-11T00:44:57.748Z,1008.26
2022-09-11T00:45:57.784Z,1008.27
2022-09-11T00:46:57.761Z,1008.25
2022-09-11T00:47:57.768Z,1008.25
2022-09-11T00:48:57.759Z,1008.22
2022-09-11T00:49:57.762Z,1008.27
2022-09-11T00:50:57.781Z,1008.23
2022-09-11T00:51:57.778Z,1008.23
2022-09-11T00:52:57.782Z,1008.23
2022-09-11T00:53:57.778Z,1008.22
2022-09-11T00:54:57.781Z,1008.23
2022-09-11T00:55:57.777Z,1008.21
2022-09-11T00:56:57.815Z,1008.24
2022-09-11T00:57:57.787Z,1008.29
2022-09-11T00:58:57.784Z,1008.30
2022-09-11T00:59:57.801Z,1008.29
2022-09-11T01:00:57.849Z,1008.28
2022-09-11T01:01:57.844Z,1008.29
2022-09-11T01:02:57.824Z,1008.28
2022-09-11T01:03:57.796Z,1008.23
2022-09-11T01:04:57.809Z,1008.27
2022-09-11T01:05:57.809Z,1008.22
2022-09-11T01:06:57.816Z,1008.25
2022-09-11T01:07:57.819Z,1008.24
2022-09-11T01:08:57.824Z,1008.23
2022-09-11T01:09:57.828Z,1008.23
2022-09-11T01:10:57.819Z,1008.22
2022-09-11T01:11:57.825Z,1008.18
2022-09-11T01:12:57.818Z,1008.23
2022-09-11T01:13:57.829Z,1008.23
2022-09-11T01:14:57.841Z,1008.23
2022-09-11T01:15:57.862Z,1008.20
2022-09-11T01:16:57.830Z,1008.23
2022-09-11T01:17:57.851Z,1008.23
2022-09-11T01:18:57.850Z,1008.22
2022-09-11T01:19:57.868Z,1008.19
2022-09-11T01:20:57.854Z,1008.20
2022-09-11T01:21:57.867Z,1008.21
2022-09-11T01:22:57.861Z,1008.22
2022-09-11T01:23:57.855Z,1008.24
2022-09-11T01:24:57.885Z,1008.20
2022-09-11T01:25:57.869Z,1008.22
2022-09-11T01:26:57.883Z,1008.17
2022-09-11T01:27:57.872Z,1008.18
2022-09-11T01:28:57.861Z,1008.14
2022-09-11T01:29:57.866Z,1008.14
2022-09-11T01:30:57.867Z,1008.16
2022-09-11T01:31:57.883Z,1008.16
2022-09-11T01:32:57.897Z,1008.21
2022-09-11T01:33:57.875Z,1008.22
2022-09-11T01:34:57.890Z,1008.26
2022-09-11T01:35:57.896Z,1008.26
2022-09-11T01:36:57.892Z,1008.25
2022-09-11T01:37:57.906Z,1008.26
2022-09-11T01:38:57.885Z,1008.31
2022-09-11T01:39:57.940Z,1008.29
2022-09-11T01:40:57.908Z,1008.30
2022-09-11T01:41:57.892Z,1008.31
2022-09-11T01:42:57.898Z,1008.34
2022-09-11T01:43:57.917Z,1008.34
2022-09-11T01:44:57.915Z,1008.36
2022-09-11T01:45:57.946Z,1008.31
2022-09-11T01:46:57.920Z,1008.33
2022-09-11T01:47:57.910Z,1008.28
2022-09-11T01:48:57.936Z,1008.30
2022-09-11T01:49:57.922Z,1008.28
2022-09-11T01:50:57.943Z,1008.27
2022-09-11T01:51:57.916Z,1008.26
2022-09-11T01:52:57.921Z,1008.29
2022-09-11T01:53:57.930Z,1008.30
2022-09-11T01:54:57.928Z,1008.27
2022-09-11T01:55:57.939Z,1008.32
2022-09-11T01:56:57.952Z,1008.30
2022-09-11T01:57:57.930Z,1008.30
2022-09-11T01:58:57.955Z,1008.30
2022-09-11T01:59:57.933Z,1008.34
2022-09-11T02:00:57.981Z,1008.34
2022-09-11T02:01:58.005Z,1008.35
2022-09-11T02:02:57.943Z,1008.38
2022-09-11T02:03:57.946Z,1008.36
2022-09-11T02:04:57.973Z,1008.37
2022-09-11T02:05:57.948Z,1008.41
2022-09-11T02:06:57.963Z,1008.36
2022-09-11T02:07:57.977Z,1008.39
2022-09-11T02:08:57.967Z,1008.39
2022-09-11T02:09:57.972Z,1008.34
2022-09-11T02:10:57.972Z,1008.39
2022-09-11T02:11:57.983Z,1008.33
2022-09-11T02:12:57.976Z,1008.29
2022-09-11T02:13:57.987Z,1008.30
2022-09-11T02:14:57.979Z,1008.32
2022-09-11T02:15:58.016Z,1008.39
2022-09-11T02:16:57.997Z,1008.37
2022-09-11T02:17:58.029Z,1008.34
2022-09-11T02:18:58.005Z,1008.35
2022-09-11T02:19:58.011Z,1008.37
2022-09-11T02:20:57.989Z,1008.37
2022-09-11T02:21:58.021Z,1008.39
2022-09-11T02:22:57.989Z,1008.39
2022-09-11T02:23:57.992Z,1008.41
2022-09-11T02:24:58.022Z,1008.44
2022-09-11T02:25:57.996Z,1008.44
2022-09-11T02:26:57.992Z,1008.46
2022-09-11T02:27:58.003Z,1008.42
2022-09-11T02:28:58.019Z,1008.43
2022-09-11T02:29:58.017Z,1008.42
2022-09-11T02:30:58.027Z,1008.40
2022-09-11T02:31:58.005Z,1008.41
2022-09-11T02:32:58.027Z,1008.42
2022-09-11T02:33:58.025Z,1008.42
2022-09-11T02:34:58.016Z,1008.43
2022-09-11T02:35:58.021Z,1008.43
2022-09-11T02:36:58.039Z,1008.41
2022-09-11T02:37:58.031Z,1008.43
2022-09-11T02:38:58.034Z,1008.43
2022-09-11T02:39:58.064Z,1008.42
2022-09-11T02:40:58.036Z,1008.41
2022-09-11T02:41:58.044Z,1008.37
2022-09-11T02:42:58.055Z,1008.41
2022-09-11T02:43:58.032Z,1008.43
2022-09-11T02:44:58.037Z,1008.43
2022-09-11T02:45:58.103Z,1008.43
2022-09-11T02:46:58.049Z,1008.43
2022-09-11T02:47:58.053Z,1008.43
2022-09-11T02:48:58.055Z,1008.43
2022-09-11T02:49:58.049Z,1008.44
2022-09-11T02:50:58.054Z,1008.44
2022-09-11T02:51:58.047Z,1008.44
2022-09-11T02:52:58.055Z,1008.46
2022-09-11T02:53:58.073Z,1008.46
2022-09-11T02:54:58.056Z,1008.50
2022-09-11T02:55:58.081Z,1008.45
2022-09-11T02:56:58.073Z,1008.47
2022-09-11T02:57:58.061Z,1008.50
2022-09-11T02:58:58.085Z,1008.46
2022-09-11T02:59:58.074Z,1008.47
2022-09-11T03:00:58.107Z,1008.50
2022-09-11T03:01:58.113Z,1008.46
2022-09-11T03:02:58.079Z,1008.48
2022-09-11T03:03:58.109Z,1008.50
2022-09-11T03:04:58.090Z,1008.53
2022-09-11T03:05:58.091Z,1008.52
2022-09-11T03:06:58.099Z,1008.51
2022-09-11T03:07:58.081Z,1008.49
2022-09-11T03:08:58.098Z,1008.53
2022-09-11T03:09:58.096Z,1008.51
2022-09-11T03:10:58.101Z,1008.55
2022-09-11T03:11:58.094Z,1008.57
2022-09-11T03:12:58.094Z,1008.57
2022-09-11T03:13:58.128Z,1008.59
2022-09-11T03:14:58.105Z,1008.58
2022-09-11T03:15:58.140Z,1008.63
2022-09-11T03:16:58.117Z,1008.63
2022-09-11T03:17:58.104Z,1008.62
2022-09-11T03:18:58.116Z,1008.63
2022-09-11T03:20:01.205Z,1008.65
2022-09-11T03:20:58.128Z,1008.68
2022-09-11T03:21:58.114Z,1008.63
2022-09-11T03:22:58.124Z,1008.67
2022-09-11T03:23:58.126Z,1008.68
2022-09-11T03:24:58.122Z,1008.69
2022-09-11T03:25:58.130Z,1008.68
2022-09-11T03:26:58.137Z,1008.70
2022-09-11T03:27:58.124Z,1008.71
2022-09-11T03:28:58.139Z,1008.71
2022-09-11T03:29:58.139Z,1008.74
2022-09-11T03:30:58.140Z,1008.80
2022-09-11T03:31:58.191Z,1008.76
2022-09-11T03:32:58.149Z,1008.79
2022-09-11T03:33:58.133Z,1008.78
2022-09-11T03:34:58.136Z,1008.80
2022-09-11T03:35:58.153Z,1008.78
2022-09-11T03:36:58.159Z,1008.85
2022-09-11T03:37:58.151Z,1008.85
2022-09-11T03:38:58.176Z,1008.80
2022-09-11T03:39:58.185Z,1008.78
2022-09-11T03:40:58.157Z,1008.84
2022-09-11T03:41:58.147Z,1008.82
2022-09-11T03:42:58.155Z,1008.83
2022-09-11T03:43:58.170Z,1008.82
2022-09-11T03:44:58.165Z,1008.84
2022-09-11T03:45:58.178Z,1008.88
2022-09-11T03:46:58.164Z,1008.89
2022-09-11T03:47:58.184Z,1008.92
2022-09-11T03:48:58.175Z,1008.94
2022-09-11T03:49:58.177Z,1008.93
2022-09-11T03:50:58.168Z,1008.92
2022-09-11T03:51:58.182Z,1008.99
2022-09-11T03:52:58.183Z,1009.01
2022-09-11T03:53:58.189Z,1009.03
2022-09-11T03:54:58.202Z,1008.94
2022-09-11T03:55:58.195Z,1009.02
2022-09-11T03:56:58.188Z,1009.01
2022-09-11T03:57:58.192Z,1008.94
2022-09-11T03:58:58.230Z,1008.98
2022-09-11T03:59:58.199Z,1009.09
2022-09-11T04:00:58.224Z,1009.10
2022-09-11T04:01:58.245Z,1009.10
2022-09-11T04:02:58.207Z,1009.10
2022-09-11T04:03:58.232Z,1009.11
2022-09-11T04:04:58.210Z,1009.10
2022-09-11T04:05:58.229Z,1009.13
2022-09-11T04:06:58.212Z,1009.14
2022-09-11T04:07:58.200Z,1009.16
2022-09-11T04:08:58.210Z,1009.15
2022-09-11T04:09:58.208Z,1009.18
2022-09-11T04:10:58.217Z,1009.19
2022-09-11T04:11:58.223Z,1009.18
2022-09-11T04:12:58.224Z,1009.18
2022-09-11T04:13:58.222Z,1009.18
2022-09-11T04:14:58.247Z,1009.20
2022-09-11T04:15:58.237Z,1009.22
2022-09-11T04:16:58.233Z,1009.26
2022-09-11T04:18:01.053Z,1009.24
2022-09-11T04:18:58.233Z,1009.23
2022-09-11T04:19:58.253Z,1009.25
2022-09-11T04:20:58.227Z,1009.28
2022-09-11T04:21:58.241Z,1009.27
2022-09-11T04:22:58.240Z,1009.25
2022-09-11T04:23:58.236Z,1009.25
2022-09-11T04:24:58.243Z,1009.24
2022-09-11T04:25:58.261Z,1009.22
2022-09-11T04:27:00.722Z,1009.24
2022-09-11T04:27:58.252Z,1009.29
2022-09-11T04:28:58.254Z,1009.28
2022-09-11T04:29:58.246Z,1009.30
2022-09-11T04:30:58.258Z,1009.32
2022-09-11T04:31:58.352Z,1009.35
2022-09-11T04:32:58.276Z,1009.37
2022-09-11T04:33:58.396Z,1009.36
2022-09-11T04:34:58.263Z,1009.34
2022-09-11T04:35:58.269Z,1009.37
2022-09-11T04:36:58.260Z,1009.34
2022-09-11T04:37:58.273Z,1009.35
2022-09-11T04:38:58.276Z,1009.36
2022-09-11T04:39:58.288Z,1009.35
2022-09-11T04:40:58.266Z,1009.40
2022-09-11T04:41:58.285Z,1009.32
2022-09-11T04:42:58.284Z,1009.37
2022-09-11T04:44:02.427Z,1009.39
2022-09-11T04:44:58.271Z,1009.37
2022-09-11T04:45:58.308Z,1009.44
2022-09-11T04:46:58.291Z,1009.45
2022-09-11T04:47:58.301Z,1009.44
2022-09-11T04:48:58.289Z,1009.47
2022-09-11T04:49:58.280Z,1009.51
2022-09-11T04:50:58.298Z,1009.45
2022-09-11T04:51:58.291Z,1009.52
2022-09-11T04:52:58.310Z,1009.52
2022-09-11T04:53:58.301Z,1009.51
2022-09-11T04:54:58.307Z,1009.52
2022-09-11T04:55:58.292Z,1009.51
2022-09-11T04:56:58.310Z,1009.52
2022-09-11T04:57:58.316Z,1009.48
2022-09-11T04:58:58.310Z,1009.46
2022-09-11T04:59:58.301Z,1009.47
2022-09-11T05:00:58.342Z,1009.49
2022-09-11T05:01:58.473Z,1009.47
2022-09-11T05:02:58.310Z,1009.46
2022-09-11T05:03:58.323Z,1009.46
2022-09-11T05:04:58.327Z,1009.48
2022-09-11T05:05:58.322Z,1009.52
2022-09-11T05:06:58.340Z,1009.46
2022-09-11T05:07:58.327Z,1009.48
2022-09-11T05:08:58.334Z,1009.47
2022-09-11T05:09:58.359Z,1009.49
2022-09-11T05:10:58.348Z,1009.52
2022-09-11T05:11:58.350Z,1009.46
2022-09-11T05:12:58.341Z,1009.50
2022-09-11T05:13:58.348Z,1009.50
2022-09-11T05:14:58.334Z,1009.49
2022-09-11T05:15:58.344Z,1009.50
2022-09-11T05:16:58.349Z,1009.45
2022-09-11T05:17:58.348Z,1009.48
2022-09-11T05:18:58.349Z,1009.50
2022-09-11T05:19:58.343Z,1009.45
2022-09-11T05:20:58.344Z,1009.49
2022-09-11T05:21:58.363Z,1009.54
2022-09-11T05:22:58.358Z,1009.50
2022-09-11T05:23:58.354Z,1009.50
2022-09-11T05:24:58.353Z,1009.58
2022-09-11T05:25:58.364Z,1009.51
2022-09-11T05:26:58.366Z,1009.56
2022-09-11T05:27:58.373Z,1009.57
2022-09-11T05:28:58.372Z,1009.58
2022-09-11T05:29:58.362Z,1009.60
2022-09-11T05:30:58.363Z,1009.61
2022-09-11T05:31:58.401Z,1009.64
2022-09-11T05:32:58.401Z,1009.67
2022-09-11T05:33:58.382Z,1009.64
2022-09-11T05:34:58.370Z,1009.74
2022-09-11T05:35:58.402Z,1009.72
2022-09-11T05:36:58.390Z,1009.79
2022-09-11T05:37:58.402Z,1009.78
2022-09-11T05:38:58.391Z,1009.78
2022-09-11T05:39:58.431Z,1009.83
2022-09-11T05:40:58.392Z,1009.80
2022-09-11T05:41:58.390Z,1009.82
2022-09-11T05:42:58.404Z,1009.85
2022-09-11T05:43:58.390Z,1009.84
2022-09-11T05:44:58.408Z,1009.88
2022-09-11T05:45:58.447Z,1009.90
2022-09-11T05:46:58.401Z,1009.93
2022-09-11T05:47:58.407Z,1009.91
2022-09-11T05:48:58.418Z,1009.95
2022-09-11T05:49:58.400Z,1009.94
2022-09-11T05:50:58.400Z,1009.94
2022-09-11T05:51:58.416Z,1009.95
2022-09-11T05:52:58.404Z,1009.96
2022-09-11T05:53:58.421Z,1009.95
2022-09-11T05:54:58.407Z,1010.01
2022-09-11T05:55:58.413Z,1010.05
2022-09-11T05:56:58.417Z,1010.11
2022-09-11T05:57:58.428Z,1010.11
2022-09-11T05:58:58.436Z,1010.13
2022-09-11T05:59:58.425Z,1010.11
2022-09-11T06:00:58.447Z,1010.13
2022-09-11T06:01:58.494Z,1010.15
2022-09-11T06:02:58.447Z,1010.19
2022-09-11T06:03:58.437Z,1010.19
2022-09-11T06:04:58.456Z,1010.20
2022-09-11T06:05:58.445Z,1010.24
2022-09-11T06:06:58.446Z,1010.28
2022-09-11T06:07:58.472Z,1010.29
2022-09-11T06:08:58.452Z,1010.32
2022-09-11T06:10:02.433Z,1010.33
2022-09-11T06:10:58.441Z,1010.30
2022-09-11T06:11:58.446Z,1010.32
2022-09-11T06:12:58.443Z,1010.33
2022-09-11T06:13:58.476Z,1010.38
2022-09-11T06:14:58.473Z,1010.35
2022-09-11T06:15:58.463Z,1010.35
2022-09-11T06:16:58.502Z,1010.37
2022-09-11T06:17:58.454Z,1010.39
2022-09-11T06:18:58.484Z,1010.40
2022-09-11T06:19:58.487Z,1010.43
2022-09-11T06:20:58.477Z,1010.43
2022-09-11T06:21:58.482Z,1010.45
2022-09-11T06:22:58.491Z,1010.41
2022-09-11T06:23:58.469Z,1010.45
2022-09-11T06:24:58.480Z,1010.44
2022-09-11T06:25:58.487Z,1010.46
2022-09-11T06:26:58.479Z,1010.48
2022-09-11T06:27:58.497Z,1010.49
2022-09-11T06:28:58.494Z,1010.49
2022-09-11T06:29:58.499Z,1010.54
2022-09-11T06:30:58.563Z,1010.53
2022-09-11T06:31:58.518Z,1010.51
2022-09-11T06:32:58.492Z,1010.53
2022-09-11T06:33:58.639Z,1010.56
2022-09-11T06:34:58.501Z,1010.56
2022-09-11T06:35:58.494Z,1010.56
2022-09-11T06:36:58.511Z,1010.65
2022-09-11T06:37:58.519Z,1010.55
2022-09-11T06:38:58.512Z,1010.59
2022-09-11T06:39:58.519Z,1010.57
2022-09-11T06:40:58.512Z,1010.57
2022-09-11T06:41:58.526Z,1010.60
2022-09-11T06:42:58.521Z,1010.58
2022-09-11T06:43:58.522Z,1010.55
2022-09-11T06:44:58.527Z,1010.61
2022-09-11T06:45:58.578Z,1010.58
2022-09-11T06:46:58.519Z,1010.58
2022-09-11T06:47:58.553Z,1010.56
2022-09-11T06:48:58.528Z,1010.56
2022-09-11T06:49:58.537Z,1010.56
2022-09-11T06:50:58.544Z,1010.54
2022-09-11T06:51:58.524Z,1010.60
2022-09-11T06:52:58.555Z,1010.61
2022-09-11T06:53:58.557Z,1010.60
2022-09-11T06:54:58.545Z,1010.63
2022-09-11T06:55:58.587Z,1010.59
2022-09-11T06:56:58.545Z,1010.58
2022-09-11T06:57:58.554Z,1010.60
2022-09-11T06:58:58.561Z,1010.62
2022-09-11T06:59:58.557Z,1010.63
2022-09-11T07:00:58.648Z,1010.62
2022-09-11T07:01:58.624Z,1010.65
2022-09-11T07:02:58.554Z,1010.62
2022-09-11T07:03:58.568Z,1010.63
2022-09-11T07:04:58.591Z,1010.65
2022-09-11T07:05:58.565Z,1010.65
2022-09-11T07:06:58.583Z,1010.66
2022-09-11T07:07:58.585Z,1010.68
2022-09-11T07:08:58.585Z,1010.64
2022-09-11T07:09:58.601Z,1010.65
2022-09-11T07:10:58.582Z,1010.70
2022-09-11T07:11:58.603Z,1010.66
2022-09-11T07:12:58.592Z,1010.64
2022-09-11T07:13:58.586Z,1010.69
2022-09-11T07:14:58.581Z,1010.69
2022-09-11T07:15:58.588Z,1010.70
2022-09-11T07:16:58.589Z,1010.69
2022-09-11T07:17:58.619Z,1010.68
2022-09-11T07:18:58.599Z,1010.69
2022-09-11T07:19:58.605Z,1010.69
2022-09-11T07:20:58.597Z,1010.70
2022-09-11T07:21:58.605Z,1010.72
2022-09-11T07:22:58.631Z,1010.72
2022-09-11T07:23:58.636Z,1010.73
2022-09-11T07:24:58.636Z,1010.74
2022-09-11T07:25:58.623Z,1010.73
2022-09-11T07:26:58.621Z,1010.74
2022-09-11T07:27:58.649Z,1010.72
2022-09-11T07:28:58.631Z,1010.74
2022-09-11T07:29:58.642Z,1010.69
2022-09-11T07:30:59.582Z,1010.76
2022-09-11T07:31:58.645Z,1010.78
2022-09-11T07:32:58.627Z,1010.77
2022-09-11T07:33:58.639Z,1010.77
2022-09-11T07:34:58.641Z,1010.75
2022-09-11T07:35:58.640Z,1010.76
2022-09-11T07:38:42.369Z,1010.80
2022-09-11T07:39:30.704Z,1010.80
2022-09-11T07:40:30.683Z,1010.85
2022-09-11T07:41:30.678Z,1010.83
2022-09-11T07:42:30.688Z,1010.81
2022-09-11T07:43:30.686Z,1010.80
2022-09-11T07:44:30.704Z,1010.83
2022-09-11T07:45:30.776Z,1010.80
2022-09-11T07:46:30.712Z,1010.84
2022-09-11T07:47:30.699Z,1010.83
2022-09-11T07:48:30.714Z,1010.82
2022-09-11T07:49:30.706Z,1010.84
2022-09-11T07:50:30.712Z,1010.84
2022-09-11T07:51:30.722Z,1010.83
2022-09-11T07:52:30.729Z,1010.86
2022-09-11T07:53:30.741Z,1010.84
2022-09-11T07:54:30.709Z,1010.84
2022-09-11T07:55:30.717Z,1010.86
2022-09-11T07:56:30.720Z,1010.89
2022-09-11T07:57:30.737Z,1010.88
2022-09-11T07:58:30.736Z,1010.89
2022-09-11T07:59:30.722Z,1010.92
2022-09-11T08:00:35.156Z,1010.86
2022-09-11T08:01:30.813Z,1010.86
2022-09-11T08:02:30.791Z,1010.86
2022-09-11T08:03:30.748Z,1010.84
2022-09-11T08:04:30.742Z,1010.82
2022-09-11T08:05:30.753Z,1010.84
2022-09-11T08:06:30.748Z,1010.89
2022-09-11T08:07:30.747Z,1010.93
2022-09-11T08:08:30.774Z,1010.97
2022-09-11T08:09:30.746Z,1010.94
2022-09-11T08:10:30.764Z,1010.97
2022-09-11T08:11:30.769Z,1010.95
2022-09-11T08:12:30.765Z,1010.98
2022-09-11T08:13:30.773Z,1011.01
2022-09-11T08:16:02.334Z,1011.06
2022-09-11T08:17:02.321Z,1011.03
2022-09-11T08:18:02.336Z,1011.06
2022-09-11T08:19:02.333Z,1011.08
2022-09-11T08:20:02.343Z,1011.07
2022-09-11T08:21:02.338Z,1011.06
2022-09-11T08:22:02.339Z,1011.07
2022-09-11T08:23:02.356Z,1011.06
2022-09-11T08:24:02.340Z,1011.09
2022-09-11T08:25:02.352Z,1011.11
2022-09-11T08:26:02.346Z,1011.15
2022-09-11T08:27:02.349Z,1011.11
2022-09-11T08:28:02.359Z,1011.18
2022-09-11T08:29:02.358Z,1011.15
2022-09-11T08:30:02.366Z,1011.19
2022-09-11T08:31:02.424Z,1011.16
2022-09-11T08:32:02.643Z,1011.21
2022-09-11T08:33:02.380Z,1011.20
2022-09-11T08:34:02.379Z,1011.25
2022-09-11T08:35:02.386Z,1011.25
2022-09-11T08:36:02.390Z,1011.24
2022-09-11T08:37:02.399Z,1011.28
2022-09-11T08:38:02.397Z,1011.28
2022-09-11T08:39:02.406Z,1011.28
2022-09-11T08:40:02.500Z,1011.27
2022-09-11T08:41:02.407Z,1011.27
2022-09-11T08:42:02.407Z,1011.26
2022-09-11T08:43:02.420Z,1011.25
2022-09-11T08:44:02.419Z,1011.25
2022-09-11T08:45:02.435Z,1011.25
2022-09-11T08:46:02.453Z,1011.25
2022-09-11T08:47:02.419Z,1011.22
2022-09-11T08:48:02.423Z,1011.23
2022-09-11T08:49:02.435Z,1011.25
2022-09-11T08:50:02.443Z,1011.28
2022-09-11T08:51:02.434Z,1011.30
2022-09-11T08:52:02.445Z,1011.29
2022-09-11T08:53:02.453Z,1011.26
2022-09-11T08:54:02.464Z,1011.25
2022-09-11T08:55:02.449Z,1011.28
2022-09-11T08:56:02.458Z,1011.25
2022-09-11T08:57:02.457Z,1011.30
2022-09-11T08:58:02.459Z,1011.29
2022-09-11T08:59:02.473Z,1011.29
2022-09-11T09:00:02.482Z,1011.35
2022-09-11T09:01:02.501Z,1011.33
2022-09-11T09:02:02.514Z,1011.30
2022-09-11T09:03:02.503Z,1011.34
2022-09-11T09:04:02.482Z,1011.32
2022-09-11T09:05:02.515Z,1011.28
2022-09-11T09:06:02.489Z,1011.27
2022-09-11T09:07:02.508Z,1011.30
2022-09-11T09:08:02.503Z,1011.29
2022-09-11T09:09:02.500Z,1011.28
2022-09-11T09:10:02.509Z,1011.34
2022-09-11T09:11:02.517Z,1011.30
2022-09-11T09:12:02.527Z,1011.28
2022-09-11T09:13:02.533Z,1011.29
2022-09-11T09:14:02.515Z,1011.34
2022-09-11T09:15:02.534Z,1011.35
2022-09-11T09:16:02.641Z,1011.34
2022-09-11T09:17:02.553Z,1011.37
2022-09-11T09:18:02.535Z,1011.38
2022-09-11T09:19:02.544Z,1011.38
2022-09-11T09:20:02.537Z,1011.42
2022-09-11T09:21:02.558Z,1011.45
2022-09-11T09:22:02.553Z,1011.43
2022-09-11T09:23:02.574Z,1011.43
2022-09-11T09:24:02.553Z,1011.44
2022-09-11T09:25:02.555Z,1011.44
2022-09-11T09:26:02.573Z,1011.44
2022-09-11T09:27:02.563Z,1011.47
2022-09-11T09:28:02.566Z,1011.42
2022-09-11T09:29:02.579Z,1011.43
2022-09-11T09:30:02.597Z,1011.46
2022-09-11T09:31:02.608Z,1011.47
2022-09-11T09:32:02.604Z,1011.53
2022-09-11T09:33:02.583Z,1011.42
2022-09-11T09:34:02.589Z,1011.43
2022-09-11T09:35:02.627Z,1011.47
2022-09-11T09:36:02.604Z,1011.49
2022-09-11T09:37:02.604Z,1011.50
2022-09-11T09:38:02.603Z,1011.47
2022-09-11T09:39:02.603Z,1011.47
2022-09-11T09:40:02.673Z,1011.47
2022-09-11T09:41:02.626Z,1011.46
2022-09-11T09:42:02.615Z,1011.44
2022-09-11T09:43:02.628Z,1011.45
2022-09-11T09:44:02.622Z,1011.48
2022-09-11T09:45:02.632Z,1011.46
2022-09-11T09:46:02.694Z,1011.44
2022-09-11T09:47:02.647Z,1011.49
2022-09-11T09:48:02.649Z,1011.58
2022-09-11T09:49:02.656Z,1011.53
2022-09-11T09:50:02.659Z,1011.48
2022-09-11T09:51:02.653Z,1011.47
2022-09-11T09:52:04.480Z,1011.47
2022-09-11T09:53:02.669Z,1011.44
2022-09-11T09:54:02.688Z,1011.46
2022-09-11T09:55:02.708Z,1011.48
2022-09-11T09:56:02.667Z,1011.47
2022-09-11T09:57:02.670Z,1011.48
2022-09-11T09:58:02.720Z,1011.47
2022-09-11T09:59:02.679Z,1011.50
2022-09-11T10:00:02.770Z,1011.48
2022-09-11T10:01:02.782Z,1011.50
2022-09-11T10:02:02.792Z,1011.47
2022-09-11T10:03:02.712Z,1011.49
2022-09-11T10:04:02.710Z,1011.47
2022-09-11T10:05:02.724Z,1011.48
2022-09-11T10:06:02.709Z,1011.49
2022-09-11T10:07:02.739Z,1011.52
2022-09-11T10:08:02.717Z,1011.58
2022-09-11T10:09:03.501Z,1011.58
2022-09-11T10:10:02.749Z,1011.62
2022-09-11T10:11:02.749Z,1011.60
2022-09-11T10:12:02.775Z,1011.58
2022-09-11T10:13:18.702Z,1011.54
2022-09-11T10:14:02.748Z,1011.60
2022-09-11T10:15:02.767Z,1011.57
2022-09-11T10:16:02.880Z,1011.63
2022-09-11T10:17:02.761Z,1011.59
2022-09-11T10:18:02.767Z,1011.63
2022-09-11T10:19:03.126Z,1011.58
2022-09-11T10:20:02.772Z,1011.57
2022-09-11T10:21:05.886Z,1011.64
2022-09-11T10:22:02.775Z,1011.57
2022-09-11T10:23:02.780Z,1011.57
2022-09-11T10:24:02.788Z,1011.59
2022-09-11T10:25:02.790Z,1011.55
2022-09-11T10:26:02.811Z,1011.59
2022-09-11T10:27:02.789Z,1011.60
2022-09-11T10:28:02.804Z,1011.65
2022-09-11T10:29:02.846Z,1011.63
2022-09-11T10:30:02.810Z,1011.61
2022-09-11T10:31:02.846Z,1011.59
2022-09-11T10:32:02.829Z,1011.61
2022-09-11T10:33:03.850Z,1011.62
2022-09-11T10:34:02.839Z,1011.60
2022-09-11T10:35:02.830Z,1011.60
2022-09-11T10:36:02.847Z,1011.60
2022-09-11T10:37:02.865Z,1011.62
2022-09-11T10:38:02.846Z,1011.58
2022-09-11T10:39:02.856Z,1011.56
2022-09-11T10:40:02.891Z,1011.61
2022-09-11T10:41:02.868Z,1011.60
2022-09-11T10:42:02.860Z,1011.63
2022-09-11T10:43:02.857Z,1011.67
2022-09-11T10:44:02.891Z,1011.67
2022-09-11T10:45:02.892Z,1011.69
2022-09-11T10:46:02.931Z,1011.69
2022-09-11T10:47:02.914Z,1011.72
2022-09-11T10:48:02.889Z,1011.71
2022-09-11T10:49:02.899Z,1011.71
2022-09-11T10:50:02.897Z,1011.65
2022-09-11T10:51:02.928Z,1011.67
2022-09-11T10:52:02.916Z,1011.65
2022-09-11T10:53:02.924Z,1011.71
2022-09-11T10:54:02.911Z,1011.69
2022-09-11T10:55:02.934Z,1011.70
2022-09-11T10:56:02.929Z,1011.70
2022-09-11T10:57:02.949Z,1011.71
2022-09-11T10:58:02.926Z,1011.72
2022-09-11T10:59:02.966Z,1011.73
2022-09-11T11:00:02.941Z,1011.74
2022-09-11T11:01:03.009Z,1011.76
2022-09-11T11:02:02.978Z,1011.77
2022-09-11T11:03:02.946Z,1011.78
2022-09-11T11:04:02.977Z,1011.80
2022-09-11T11:05:02.960Z,1011.78
2022-09-11T11:06:02.961Z,1011.78
2022-09-11T11:07:02.970Z,1011.79
2022-09-11T11:08:02.991Z,1011.74
2022-09-11T11:09:02.986Z,1011.70
2022-09-11T11:10:02.992Z,1011.73
2022-09-11T11:11:02.983Z,1011.71
2022-09-11T11:12:02.991Z,1011.81
2022-09-11T11:13:03.018Z,1011.86
2022-09-11T11:14:03.001Z,1011.74
2022-09-11T11:15:03.000Z,1011.75
2022-09-11T11:16:03.047Z,1011.73
2022-09-11T11:17:03.012Z,1011.76
2022-09-11T11:18:03.018Z,1011.77
2022-09-11T11:19:03.000Z,1011.81
2022-09-11T11:20:03.011Z,1011.79
2022-09-11T11:21:03.037Z,1011.80
2022-09-11T11:22:03.049Z,1011.75
2022-09-11T11:23:03.040Z,1011.82
2022-09-11T11:24:03.039Z,1011.83
2022-09-11T11:25:03.038Z,1011.83
2022-09-11T11:26:03.102Z,1011.82
2022-09-11T11:27:03.053Z,1011.84
2022-09-11T11:28:03.085Z,1011.83
2022-09-11T11:29:03.090Z,1011.81
2022-09-11T11:30:03.064Z,1011.84
2022-09-11T11:31:03.131Z,1011.84
2022-09-11T11:32:03.075Z,1011.85
2022-09-11T11:33:03.127Z,1011.81
2022-09-11T11:34:03.069Z,1011.83
2022-09-11T11:35:03.085Z,1011.85
2022-09-11T11:36:03.093Z,1011.86
2022-09-11T11:37:03.082Z,1011.85
2022-09-11T11:38:03.099Z,1011.83
2022-09-11T11:39:03.121Z,1011.82
2022-09-11T11:40:03.147Z,1011.83
2022-09-11T11:41:03.099Z,1011.80
2022-09-11T11:42:03.114Z,1011.79
2022-09-11T11:43:03.121Z,1011.77
2022-09-11T11:44:03.130Z,1011.77
2022-09-11T11:45:03.127Z,1011.80
2022-09-11T11:46:03.174Z,1011.77
2022-09-11T11:47:03.129Z,1011.75
2022-09-11T11:48:03.153Z,1011.78
2022-09-11T11:49:03.156Z,1011.77
2022-09-11T11:50:03.144Z,1011.74
2022-09-11T11:51:03.147Z,1011.73
2022-09-11T11:52:03.147Z,1011.73
2022-09-11T11:53:03.151Z,1011.74
2022-09-11T11:54:03.158Z,1011.69
2022-09-11T11:55:03.172Z,1011.70
2022-09-11T11:56:03.184Z,1011.71
2022-09-11T11:57:03.232Z,1011.69
2022-09-11T11:58:03.172Z,1011.71
2022-09-11T11:59:03.174Z,1011.74
2022-09-11T12:00:03.206Z,1011.78
2022-09-11T12:01:03.284Z,1011.76
2022-09-11T12:02:03.343Z,1011.79
2022-09-11T12:03:03.184Z,1011.80
2022-09-11T12:04:03.196Z,1011.81
2022-09-11T12:05:03.192Z,1011.81
2022-09-11T12:06:03.214Z,1011.85
2022-09-11T12:07:03.269Z,1011.86
2022-09-11T12:08:03.233Z,1011.87
2022-09-11T12:09:03.208Z,1011.87